createdAt,value
2022-12-18T00:00:08.482Z,4.14
2022-12-18T00:02:36.606Z,4.10
2022-12-18T00:05:04.720Z,4.08
2022-12-18T00:07:32.614Z,4.05
2022-12-18T00:10:00.638Z,4.01
2022-12-18T00:12:29.997Z,3.93
2022-12-18T00:14:59.629Z,3.91
2022-12-18T00:17:27.597Z,3.91
2022-12-18T00:19:55.535Z,3.94
2022-12-18T00:22:23.475Z,3.97
2022-12-18T00:24:51.384Z,4.01
2022-12-18T00:27:19.298Z,4.07
2022-12-18T00:29:47.182Z,4.12
2022-12-18T00:32:16.612Z,4.17
2022-12-18T00:34:44.750Z,4.24
2022-12-18T00:37:16.817Z,4.29
2022-12-18T00:39:47.435Z,4.35
2022-12-18T00:42:32.719Z,4.41
2022-12-18T00:45:00.666Z,4.42
2022-12-18T00:47:29.895Z,4.47
2022-12-18T00:49:57.877Z,4.52
2022-12-18T00:52:25.773Z,4.56
2022-12-18T00:54:53.702Z,4.58
2022-12-18T00:57:21.689Z,4.59
2022-12-18T00:59:50.456Z,4.55
2022-12-18T01:02:18.734Z,4.53
2022-12-18T01:04:48.352Z,4.52
2022-12-18T01:07:16.550Z,4.53
2022-12-18T01:09:44.611Z,4.54
2022-12-18T01:12:12.555Z,4.51
2022-12-18T01:14:40.406Z,4.48
2022-12-18T01:17:08.332Z,4.47
2022-12-18T01:19:36.650Z,4.45
2022-12-18T01:22:08.664Z,4.40
2022-12-18T01:24:36.733Z,4.37
2022-12-18T01:27:04.853Z,4.29
2022-12-18T01:29:33.023Z,4.29
2022-12-18T01:32:01.173Z,4.31
2022-12-18T01:34:29.154Z,4.34
2022-12-18T01:36:57.052Z,4.35
2022-12-18T01:39:26.400Z,4.34
2022-12-18T01:42:06.401Z,4.28
2022-12-18T01:45:09.070Z,4.22
2022-12-18T01:47:43.658Z,4.23
2022-12-18T01:50:17.169Z,4.22
2022-12-18T01:52:48.701Z,4.24
2022-12-18T01:55:21.226Z,4.24
2022-12-18T01:57:50.063Z,4.22
2022-12-18T02:00:20.873Z,4.22
2022-12-18T02:02:50.039Z,4.19
2022-12-18T02:05:21.092Z,4.17
2022-12-18T02:08:00.629Z,4.17
2022-12-18T02:10:35.015Z,4.18
2022-12-18T02:13:11.600Z,4.19
2022-12-18T02:15:47.388Z,4.25
2022-12-18T02:18:21.985Z,4.25
2022-12-18T02:20:54.956Z,4.25
2022-12-18T02:23:40.706Z,4.21
2022-12-18T02:26:20.799Z,4.22
2022-12-18T02:28:54.111Z,4.23
2022-12-18T02:31:28.035Z,4.24
2022-12-18T02:33:58.720Z,4.25
2022-12-18T02:36:29.620Z,4.24
2022-12-18T02:38:59.995Z,4.28
2022-12-18T02:41:30.655Z,4.30
2022-12-18T02:44:02.566Z,4.33
2022-12-18T02:46:38.692Z,4.39
2022-12-18T02:49:22.936Z,4.37
2022-12-18T02:51:55.697Z,4.39
2022-12-18T02:54:38.340Z,4.37
2022-12-18T02:57:17.758Z,4.38
2022-12-18T02:59:55.476Z,4.40
2022-12-18T03:02:27.999Z,4.40
2022-12-18T03:05:03.297Z,4.38
2022-12-18T03:07:39.074Z,4.40
2022-12-18T03:10:10.872Z,4.45
2022-12-18T03:12:45.182Z,4.47
2022-12-18T03:15:20.304Z,4.43
2022-12-18T03:17:54.922Z,4.42
2022-12-18T03:20:25.629Z,4.39
2022-12-18T03:22:58.516Z,4.35
2022-12-18T03:25:29.587Z,4.26
2022-12-18T03:28:02.713Z,4.25
2022-12-18T03:30:33.726Z,4.20
2022-12-18T03:33:08.027Z,4.13
2022-12-18T03:35:39.751Z,4.12
2022-12-18T03:38:08.371Z,4.03
2022-12-18T03:40:46.635Z,3.88
2022-12-18T03:43:22.044Z,3.83
2022-12-18T03:45:56.658Z,3.82
2022-12-18T03:48:32.511Z,3.76
2022-12-18T03:51:04.372Z,3.73
2022-12-18T03:53:39.738Z,3.76
2022-12-18T03:56:09.525Z,3.70
2022-12-18T03:58:42.110Z,3.71
2022-12-18T04:01:14.499Z,3.65
2022-12-18T04:03:44.931Z,3.63
2022-12-18T04:06:14.021Z,3.63
2022-12-18T04:08:43.099Z,3.58
2022-12-18T04:11:11.315Z,3.63
2022-12-18T04:13:41.182Z,3.60
2022-12-18T04:16:10.396Z,3.58
2022-12-18T04:18:38.740Z,3.56
2022-12-18T04:21:07.400Z,3.59
2022-12-18T04:23:35.491Z,3.67
2022-12-18T04:26:03.391Z,3.68
2022-12-18T04:28:31.279Z,3.71
2022-12-18T04:31:00.602Z,3.70
2022-12-18T04:33:28.590Z,3.67
2022-12-18T04:35:56.567Z,3.66
2022-12-18T04:38:24.555Z,3.67
2022-12-18T04:40:52.439Z,3.64
2022-12-18T04:43:20.387Z,3.62
2022-12-18T04:45:48.370Z,3.59
2022-12-18T04:48:17.772Z,3.59
2022-12-18T04:50:45.651Z,3.63
2022-12-18T04:53:13.526Z,3.62
2022-12-18T04:55:41.553Z,3.59
2022-12-18T04:58:09.495Z,3.65
2022-12-18T05:00:37.697Z,3.63
2022-12-18T05:03:05.726Z,3.63
2022-12-18T05:05:37.072Z,3.63
2022-12-18T05:08:05.266Z,3.60
2022-12-18T05:10:37.937Z,3.62
2022-12-18T05:13:06.322Z,3.57
2022-12-18T05:15:35.258Z,3.58
2022-12-18T05:18:03.925Z,3.59
2022-12-18T05:20:32.168Z,3.58
2022-12-18T05:23:01.515Z,3.56
2022-12-18T05:25:29.701Z,3.62
2022-12-18T05:27:57.852Z,3.60
2022-12-18T05:30:26.035Z,3.58
2022-12-18T05:32:54.028Z,3.61
2022-12-18T05:35:22.740Z,3.63
2022-12-18T05:37:50.647Z,3.66
2022-12-18T05:40:20.042Z,3.69
2022-12-18T05:42:47.920Z,3.72
2022-12-18T05:45:15.831Z,3.71
2022-12-18T05:47:43.800Z,3.68
2022-12-18T05:50:11.817Z,3.64
2022-12-18T05:52:39.736Z,3.59
2022-12-18T05:55:08.002Z,3.51
2022-12-18T05:57:37.365Z,3.42
2022-12-18T06:00:06.178Z,3.35
2022-12-18T06:02:34.145Z,3.29
2022-12-18T06:05:02.142Z,3.25
2022-12-18T06:07:30.066Z,3.21
2022-12-18T06:09:57.930Z,3.15
2022-12-18T06:12:25.935Z,3.07
2022-12-18T06:14:55.202Z,3.01
2022-12-18T06:17:23.327Z,2.97
2022-12-18T06:19:51.248Z,2.96
2022-12-18T06:22:19.188Z,2.93
2022-12-18T06:24:47.115Z,2.90
2022-12-18T06:27:15.288Z,2.86
2022-12-18T06:29:43.185Z,2.84
2022-12-18T06:32:12.543Z,2.81
2022-12-18T06:34:40.577Z,2.79
2022-12-18T06:37:08.865Z,2.75
2022-12-18T06:39:36.845Z,2.71
2022-12-18T06:42:05.679Z,2.72
2022-12-18T06:44:33.764Z,2.75
2022-12-18T06:47:01.653Z,2.82
2022-12-18T06:49:30.969Z,2.91
2022-12-18T06:51:59.019Z,2.99
2022-12-18T06:54:26.985Z,3.09
2022-12-18T06:56:54.936Z,3.18
2022-12-18T06:59:22.900Z,3.19
2022-12-18T07:01:50.895Z,3.23
2022-12-18T07:04:18.997Z,3.23
2022-12-18T07:06:48.453Z,3.24
2022-12-18T07:09:16.465Z,3.24
2022-12-18T07:11:44.427Z,3.23
2022-12-18T07:14:12.429Z,3.27
2022-12-18T07:16:40.433Z,3.29
2022-12-18T07:19:08.699Z,3.30
2022-12-18T07:21:36.598Z,3.33
2022-12-18T07:24:06.977Z,3.33
2022-12-18T07:26:35.125Z,3.34
2022-12-18T07:29:03.117Z,3.29
2022-12-18T07:31:31.171Z,3.32
2022-12-18T07:33:59.327Z,3.33
2022-12-18T07:36:27.603Z,3.27
2022-12-18T07:38:55.782Z,3.24
2022-12-18T07:41:25.077Z,3.22
2022-12-18T07:43:53.280Z,3.25
2022-12-18T07:46:21.563Z,3.28
2022-12-18T07:48:50.454Z,3.33
2022-12-18T07:51:19.899Z,3.42
2022-12-18T07:53:49.537Z,3.48
2022-12-18T07:56:29.161Z,3.58
2022-12-18T07:58:59.711Z,3.66
2022-12-18T08:01:28.170Z,3.72
2022-12-18T08:03:56.418Z,3.78
2022-12-18T08:06:24.853Z,3.80
2022-12-18T08:08:54.500Z,3.80
2022-12-18T08:11:23.198Z,3.91
2022-12-18T08:13:51.117Z,4.02
2022-12-18T08:16:21.859Z,4.15
2022-12-18T08:18:50.785Z,4.24
2022-12-18T08:21:22.257Z,4.28
2022-12-18T08:23:51.678Z,4.35
2022-12-18T08:26:20.956Z,4.30
2022-12-18T08:28:49.890Z,4.31
2022-12-18T08:31:20.305Z,4.32
2022-12-18T08:33:51.581Z,4.23
2022-12-18T08:36:20.125Z,4.23
2022-12-18T08:38:48.590Z,4.21
2022-12-18T08:41:19.229Z,4.23
2022-12-18T08:44:04.852Z,4.28
2022-12-18T08:46:37.545Z,4.29
2022-12-18T08:49:05.801Z,4.34
2022-12-18T08:51:33.926Z,4.32
2022-12-18T08:54:02.359Z,4.33
2022-12-18T08:56:31.978Z,4.36
2022-12-18T08:59:00.114Z,4.38
2022-12-18T09:01:28.363Z,4.41
2022-12-18T09:03:57.714Z,4.44
2022-12-18T09:06:27.638Z,4.39
2022-12-18T09:08:55.612Z,4.31
2022-12-18T09:11:26.081Z,4.24
2022-12-18T09:13:55.650Z,4.25
2022-12-18T09:16:30.171Z,4.26
2022-12-18T09:19:01.733Z,4.26
2022-12-18T09:21:31.671Z,4.31
2022-12-18T09:24:01.468Z,4.28
2022-12-18T09:26:29.479Z,4.23
2022-12-18T09:28:57.458Z,4.19
2022-12-18T09:31:26.689Z,4.20
2022-12-18T09:33:56.642Z,4.22
2022-12-18T09:36:25.985Z,4.25
2022-12-18T09:38:54.182Z,4.29
2022-12-18T09:41:45.451Z,4.35
2022-12-18T09:44:20.545Z,4.39
2022-12-18T09:46:52.822Z,4.40
2022-12-18T09:49:24.691Z,4.42
2022-12-18T09:51:59.299Z,4.42
2022-12-18T09:54:34.795Z,4.41
2022-12-18T09:57:02.701Z,4.47
2022-12-18T09:59:36.413Z,4.52
2022-12-18T10:02:16.119Z,4.54
2022-12-18T10:04:44.575Z,4.61
2022-12-18T10:07:21.391Z,4.64
2022-12-18T10:09:57.565Z,4.68
2022-12-18T10:12:30.631Z,4.70
2022-12-18T10:15:04.940Z,4.73
2022-12-18T10:17:43.085Z,4.72
2022-12-18T10:20:17.823Z,4.71
2022-12-18T10:22:56.064Z,4.71
2022-12-18T10:25:27.587Z,4.69
2022-12-18T10:27:59.643Z,4.69
2022-12-18T10:30:28.527Z,4.72
2022-12-18T10:32:57.229Z,4.78
2022-12-18T10:35:27.789Z,4.80
2022-12-18T10:38:05.668Z,4.77
2022-12-18T10:40:34.387Z,4.76
2022-12-18T10:43:06.901Z,4.66
2022-12-18T10:45:34.940Z,4.63
2022-12-18T10:48:03.220Z,4.60
2022-12-18T10:51:01.723Z,4.57
2022-12-18T10:53:26.200Z,4.58
2022-12-18T10:55:56.121Z,4.60
2022-12-18T10:58:27.591Z,4.70
2022-12-18T11:01:07.589Z,4.77
2022-12-18T11:03:37.832Z,4.86
2022-12-18T11:06:08.458Z,4.92
2022-12-18T11:08:37.997Z,5.00
2022-12-18T11:11:10.060Z,5.04
2022-12-18T11:13:38.031Z,5.12
2022-12-18T11:16:06.280Z,5.22
2022-12-18T11:18:35.896Z,5.32
2022-12-18T11:21:09.388Z,5.40
2022-12-18T11:23:47.845Z,5.49
2022-12-18T11:26:16.016Z,5.56
2022-12-18T11:28:46.827Z,5.68
2022-12-18T11:31:28.541Z,5.77
2022-12-18T11:37:02.116Z,6.02
2022-12-18T11:39:39.643Z,5.98
2022-12-18T11:42:14.775Z,6.00
2022-12-18T11:44:48.994Z,6.05
2022-12-18T11:47:27.756Z,5.99
2022-12-18T11:49:58.389Z,5.92
2022-12-18T11:52:29.360Z,5.81
2022-12-18T11:55:03.253Z,5.73
2022-12-18T11:57:39.494Z,5.68
2022-12-18T12:00:16.008Z,5.56
2022-12-18T12:03:07.063Z,5.48
2022-12-18T12:05:52.170Z,5.44
2022-12-18T12:08:29.138Z,5.37
2022-12-18T12:11:08.395Z,5.30
2022-12-18T12:13:46.945Z,5.25
2022-12-18T12:16:20.876Z,5.22
2022-12-18T12:19:10.565Z,5.19
2022-12-18T12:21:42.826Z,5.22
2022-12-18T12:24:24.331Z,5.22
2022-12-18T12:27:03.376Z,5.15
2022-12-18T12:29:44.871Z,5.06
2022-12-18T12:32:28.394Z,5.01
2022-12-18T12:35:11.602Z,5.03
2022-12-18T12:37:53.852Z,5.03
2022-12-18T12:43:23.837Z,5.00
2022-12-18T12:45:56.028Z,5.04
2022-12-18T12:48:35.395Z,5.05
2022-12-18T12:51:09.332Z,5.07
2022-12-18T12:53:40.822Z,5.11
2022-12-18T12:56:15.474Z,5.15
2022-12-18T12:58:54.637Z,5.16
2022-12-18T13:01:31.167Z,5.22
2022-12-18T13:04:09.028Z,5.22
2022-12-18T13:06:46.361Z,5.25
2022-12-18T13:09:14.617Z,5.26
2022-12-18T13:12:02.108Z,5.28
2022-12-18T13:14:33.849Z,5.28
2022-12-18T13:17:31.885Z,5.24
2022-12-18T13:20:15.558Z,5.14
2022-12-18T13:22:47.842Z,5.04
2022-12-18T13:25:37.201Z,4.99
2022-12-18T13:28:11.202Z,5.04
2022-12-18T13:30:55.680Z,5.06
2022-12-18T13:36:37.419Z,5.10
2022-12-18T13:39:23.256Z,5.07
2022-12-18T13:41:56.549Z,5.04
2022-12-18T13:44:39.997Z,4.96
2022-12-18T13:47:30.165Z,4.92
2022-12-18T13:49:59.112Z,4.94
2022-12-18T13:52:30.379Z,4.88
2022-12-18T13:55:01.442Z,4.83
2022-12-18T13:57:31.239Z,4.77
2022-12-18T14:00:01.046Z,4.73
2022-12-18T14:02:31.184Z,4.71
2022-12-18T14:04:59.215Z,4.71
2022-12-18T14:07:31.433Z,4.70
2022-12-18T14:10:18.866Z,4.70
2022-12-18T14:13:03.064Z,4.64
2022-12-18T14:15:35.671Z,4.57
2022-12-18T14:18:21.082Z,4.57
2022-12-18T14:20:52.940Z,4.54
2022-12-18T14:23:31.006Z,4.53
2022-12-18T14:26:03.780Z,4.55
2022-12-18T14:28:33.781Z,4.53
2022-12-18T14:31:01.841Z,4.53
2022-12-18T14:33:31.208Z,4.48
2022-12-18T14:36:01.701Z,4.45
2022-12-18T14:38:32.043Z,4.43
2022-12-18T14:41:01.737Z,4.43
2022-12-18T14:43:31.515Z,4.41
2022-12-18T14:46:00.826Z,4.46
2022-12-18T14:48:39.409Z,4.43
2022-12-18T14:51:09.402Z,4.43
2022-12-18T14:53:40.857Z,4.38
2022-12-18T14:56:17.828Z,4.35
2022-12-18T14:58:50.668Z,4.31
2022-12-18T15:01:24.066Z,4.27
2022-12-18T15:03:54.035Z,4.25
2022-12-18T15:06:29.451Z,4.19
2022-12-18T15:08:57.428Z,4.16
2022-12-18T15:11:28.764Z,4.06
2022-12-18T15:13:57.005Z,3.99
2022-12-18T15:16:26.364Z,3.89
2022-12-18T15:18:55.831Z,3.78
2022-12-18T15:21:26.130Z,3.70
2022-12-18T15:23:55.281Z,3.62
2022-12-18T15:26:24.289Z,3.59
2022-12-18T15:28:56.104Z,3.56
2022-12-18T15:31:31.685Z,3.56
2022-12-18T15:34:13.649Z,3.50
2022-12-18T15:36:41.980Z,3.48
2022-12-18T15:39:13.424Z,3.48
2022-12-18T15:41:41.592Z,3.52
2022-12-18T15:44:23.989Z,3.56
2022-12-18T15:46:52.038Z,3.63
2022-12-18T15:49:21.686Z,3.65
2022-12-18T15:51:52.964Z,3.67
2022-12-18T15:54:41.588Z,3.68
2022-12-18T15:57:25.397Z,3.67
2022-12-18T15:59:55.130Z,3.60
2022-12-18T16:02:24.747Z,3.48
2022-12-18T16:04:55.089Z,3.34
2022-12-18T16:07:25.489Z,3.21
2022-12-18T16:09:55.853Z,3.08
2022-12-18T16:12:26.369Z,2.91
2022-12-18T16:14:54.504Z,2.78
2022-12-18T16:17:22.550Z,2.66
2022-12-18T16:19:50.568Z,2.54
2022-12-18T16:22:23.440Z,2.40
2022-12-18T16:24:52.328Z,2.33
2022-12-18T16:27:20.712Z,2.23
2022-12-18T16:29:48.721Z,2.13
2022-12-18T16:32:19.021Z,2.05
2022-12-18T16:34:47.134Z,1.95
2022-12-18T16:37:16.911Z,1.86
2022-12-18T16:39:46.297Z,1.71
2022-12-18T16:42:19.769Z,1.58
2022-12-18T16:44:48.936Z,1.47
2022-12-18T16:47:17.868Z,1.37
2022-12-18T16:49:46.472Z,1.28
2022-12-18T16:52:15.125Z,1.20
2022-12-18T16:54:43.097Z,1.14
2022-12-18T16:57:14.811Z,1.05
2022-12-18T16:59:42.875Z,1.02
2022-12-18T17:02:15.896Z,0.97
2022-12-18T17:04:45.625Z,0.95
2022-12-18T17:07:14.010Z,0.93
2022-12-18T17:09:42.416Z,0.92
2022-12-18T17:12:12.027Z,0.88
2022-12-18T17:14:40.196Z,0.83
2022-12-18T17:17:20.784Z,0.81
2022-12-18T17:19:50.082Z,0.82
2022-12-18T17:22:18.086Z,0.83
2022-12-18T17:24:46.116Z,0.83
2022-12-18T17:27:15.447Z,0.82
2022-12-18T17:29:47.822Z,0.83
2022-12-18T17:32:16.690Z,0.86
2022-12-18T17:34:44.761Z,0.88
2022-12-18T17:37:12.828Z,0.92
2022-12-18T17:39:41.158Z,0.96
2022-12-18T17:42:14.663Z,1.00
2022-12-18T17:44:44.921Z,1.04
2022-12-18T17:47:13.162Z,1.11
2022-12-18T17:49:41.338Z,1.21
2022-12-18T17:52:09.455Z,1.29
2022-12-18T17:54:39.913Z,1.31
2022-12-18T17:57:08.093Z,1.35
2022-12-18T17:59:36.153Z,1.37
2022-12-18T18:02:05.829Z,1.37
2022-12-18T18:04:34.620Z,1.41
2022-12-18T18:07:03.094Z,1.40
2022-12-18T18:09:31.164Z,1.41
2022-12-18T18:12:16.599Z,1.42
2022-12-18T18:14:44.857Z,1.40
2022-12-18T18:17:14.201Z,1.37
2022-12-18T18:19:43.508Z,1.37
2022-12-18T18:22:14.799Z,1.34
2022-12-18T18:24:43.790Z,1.31
2022-12-18T18:27:11.864Z,1.27
2022-12-18T18:29:40.701Z,1.20
2022-12-18T18:32:10.621Z,1.17
2022-12-18T18:34:41.120Z,1.09
2022-12-18T18:37:11.046Z,1.05
2022-12-18T18:39:39.451Z,1.05
2022-12-18T18:42:08.160Z,1.03
2022-12-18T18:44:36.440Z,1.00
2022-12-18T18:47:06.926Z,0.99
2022-12-18T18:49:37.548Z,0.96
2022-12-18T18:52:08.617Z,0.93
2022-12-18T18:54:36.688Z,0.89
2022-12-18T18:57:20.336Z,0.86
2022-12-18T18:59:49.081Z,0.82
2022-12-18T19:02:18.618Z,0.75
2022-12-18T19:04:47.154Z,0.70
2022-12-18T19:07:24.040Z,0.64
2022-12-18T19:10:04.756Z,0.56
2022-12-18T19:12:51.829Z,0.49
2022-12-18T19:15:19.947Z,0.40
2022-12-18T19:17:48.354Z,0.34
2022-12-18T19:20:18.294Z,0.31
2022-12-18T19:22:52.203Z,0.25
2022-12-18T19:25:38.535Z,0.20
2022-12-18T19:28:19.962Z,0.14
2022-12-18T19:30:50.861Z,0.07
2022-12-18T19:36:18.593Z,0.00
2022-12-18T19:38:48.196Z,-0.05
2022-12-18T19:41:17.823Z,-0.10
2022-12-18T19:43:47.400Z,-0.16
2022-12-18T19:46:17.004Z,-0.21
2022-12-18T19:48:45.841Z,-0.28
2022-12-18T19:51:16.587Z,-0.33
2022-12-18T19:53:45.039Z,-0.32
2022-12-18T19:56:16.078Z,-0.34
2022-12-18T19:58:45.147Z,-0.32
2022-12-18T20:01:13.667Z,-0.31
2022-12-18T20:03:46.959Z,-0.33
2022-12-18T20:06:25.102Z,-0.40
2022-12-18T20:08:57.626Z,-0.47
2022-12-18T20:11:30.948Z,-0.54
2022-12-18T20:14:03.179Z,-0.60
2022-12-18T20:16:31.476Z,-0.66
2022-12-18T20:18:59.810Z,-0.69
2022-12-18T20:21:28.293Z,-0.71
2022-12-18T20:23:56.779Z,-0.72
2022-12-18T20:26:25.099Z,-0.72
2022-12-18T20:28:55.671Z,-0.73
2022-12-18T20:31:24.088Z,-0.75
2022-12-18T20:33:54.377Z,-0.78
2022-12-18T20:36:24.628Z,-0.84
2022-12-18T20:38:58.234Z,-0.89
2022-12-18T20:41:33.506Z,-0.94
2022-12-18T20:44:21.364Z,-1.01
2022-12-18T20:46:51.876Z,-1.06
2022-12-18T20:49:19.902Z,-1.13
2022-12-18T20:51:51.490Z,-1.20
2022-12-18T20:54:19.397Z,-1.24
2022-12-18T20:56:47.529Z,-1.32
2022-12-18T20:59:17.643Z,-1.39
2022-12-18T21:01:48.771Z,-1.46
2022-12-18T21:04:18.230Z,-1.50
2022-12-18T21:06:51.393Z,-1.56
2022-12-18T21:09:20.435Z,-1.59
2022-12-18T21:12:05.798Z,-1.62
2022-12-18T21:14:35.064Z,-1.64
2022-12-18T21:17:03.023Z,-1.65
2022-12-18T21:19:31.590Z,-1.70
2022-12-18T21:21:59.868Z,-1.73
2022-12-18T21:24:28.224Z,-1.78
2022-12-18T21:27:00.552Z,-1.82
2022-12-18T21:29:28.875Z,-1.85
2022-12-18T21:31:58.588Z,-1.90
2022-12-18T21:34:28.508Z,-1.89
2022-12-18T21:36:57.724Z,-1.90
2022-12-18T21:39:27.005Z,-1.91
2022-12-18T21:42:13.051Z,-1.93
2022-12-18T21:44:41.992Z,-1.94
2022-12-18T21:47:21.696Z,-1.97
2022-12-18T21:49:51.701Z,-1.95
2022-12-18T21:52:19.997Z,-1.97
2022-12-18T21:54:49.751Z,-1.98
2022-12-18T21:57:18.688Z,-1.98
2022-12-18T21:59:46.616Z,-1.98
2022-12-18T22:02:17.253Z,-1.97
2022-12-18T22:04:46.147Z,-1.97
2022-12-18T22:07:15.376Z,-1.95
2022-12-18T22:09:43.626Z,-1.95
2022-12-18T22:12:13.689Z,-1.92
2022-12-18T22:14:41.593Z,-1.91
2022-12-18T22:17:11.110Z,-1.91
2022-12-18T22:19:43.075Z,-1.93
2022-12-18T22:22:11.683Z,-1.95
2022-12-18T22:24:39.625Z,-1.95
2022-12-18T22:27:07.673Z,-1.98
2022-12-18T22:29:53.531Z,-2.01
2022-12-18T22:32:30.719Z,-2.04
2022-12-18T22:35:06.804Z,-2.09
2022-12-18T22:37:37.330Z,-2.14
2022-12-18T22:40:07.378Z,-2.17
2022-12-18T22:42:35.541Z,-2.22
2022-12-18T22:45:03.564Z,-2.24
2022-12-18T22:47:31.532Z,-2.28
2022-12-18T22:50:00.840Z,-2.30
2022-12-18T22:52:28.838Z,-2.36
2022-12-18T22:54:56.785Z,-2.40
2022-12-18T22:57:25.732Z,-2.42
2022-12-18T22:59:53.615Z,-2.46
2022-12-18T23:02:21.815Z,-2.49
2022-12-18T23:04:49.902Z,-2.47
2022-12-18T23:07:19.390Z,-2.51
2022-12-18T23:09:47.856Z,-2.52
2022-12-18T23:12:20.896Z,-2.54
2022-12-18T23:14:49.026Z,-2.54
2022-12-18T23:17:17.127Z,-2.53
2022-12-18T23:19:48.970Z,-2.53
2022-12-18T23:22:17.453Z,-2.55
2022-12-18T23:24:47.543Z,-2.59
2022-12-18T23:27:15.527Z,-2.60
2022-12-18T23:29:43.447Z,-2.63
2022-12-18T23:32:13.478Z,-2.66
2022-12-18T23:34:41.537Z,-2.71
2022-12-18T23:37:09.503Z,-2.75
2022-12-18T23:39:37.337Z,-2.80
2022-12-18T23:42:07.019Z,-2.81
2022-12-18T23:44:35.123Z,-2.82
2022-12-18T23:47:03.112Z,-2.83
2022-12-18T23:49:31.150Z,-2.83
2022-12-18T23:51:59.522Z,-2.81
2022-12-18T23:54:33.581Z,-2.80
2022-12-18T23:57:02.604Z,-2.80
2022-12-18T23:59:32.121Z,-2.80
